createdAt,value
2018-09-12T00:00:34.848Z,20.01
2018-09-12T00:01:34.864Z,20.01
2018-09-12T00:02:34.679Z,20.01
2018-09-12T00:03:34.678Z,19.98
2018-09-12T00:04:34.564Z,19.92
2018-09-12T00:05:34.517Z,19.92
2018-09-12T00:06:34.364Z,19.90
2018-09-12T00:07:34.430Z,19.90
2018-09-12T00:08:34.210Z,19.98
2018-09-12T00:11:16.498Z,19.78
2018-09-12T00:12:16.534Z,19.72
2018-09-12T00:13:16.312Z,19.76
2018-09-12T00:14:16.323Z,19.71
2018-09-12T00:15:16.152Z,19.62
2018-09-12T00:17:41.027Z,19.65
2018-09-12T00:18:40.897Z,19.61
2018-09-12T00:19:40.932Z,19.71
2018-09-12T00:20:40.757Z,19.50
2018-09-12T00:21:40.765Z,19.52
2018-09-12T00:22:40.597Z,19.55
2018-09-12T00:23:40.544Z,19.58
2018-09-12T00:24:40.442Z,19.49
2018-09-12T00:25:40.462Z,19.62
2018-09-12T00:26:40.296Z,19.61
2018-09-12T00:27:40.322Z,19.61
2018-09-12T00:28:40.110Z,19.58
2018-09-12T00:29:40.069Z,19.55
2018-09-12T00:30:40.055Z,19.55
2018-09-12T00:31:40.015Z,19.53
2018-09-12T00:32:39.785Z,19.57
2018-09-12T00:33:39.832Z,19.64
2018-09-12T00:34:41.585Z,19.53
2018-09-12T00:35:39.601Z,19.55
2018-09-12T00:36:39.506Z,19.49
2018-09-12T00:37:39.509Z,19.52
2018-09-12T00:38:39.318Z,19.52
2018-09-12T00:39:39.326Z,19.50
2018-09-12T00:40:39.164Z,19.46
2018-09-12T00:41:39.121Z,19.55
2018-09-12T00:42:39.024Z,19.42
2018-09-12T00:45:20.994Z,19.68
2018-09-12T00:46:20.938Z,19.67
2018-09-12T00:47:20.842Z,19.62
2018-09-12T00:48:20.845Z,19.75
2018-09-12T00:49:20.676Z,19.70
2018-09-12T00:50:20.655Z,19.64
2018-09-12T00:51:20.506Z,19.64
2018-09-12T00:52:22.551Z,19.62
2018-09-12T00:53:20.348Z,19.64
2018-09-12T00:54:20.374Z,19.55
2018-09-12T00:55:20.195Z,19.57
2018-09-12T00:58:02.502Z,19.38
2018-09-12T00:59:02.490Z,19.45
2018-09-12T01:00:02.331Z,19.38
2018-09-12T01:01:02.293Z,19.31
2018-09-12T01:02:02.197Z,19.30
2018-09-12T01:03:02.106Z,19.25
2018-09-12T01:04:02.013Z,19.23
2018-09-12T01:05:02.030Z,19.21
2018-09-12T01:06:01.856Z,19.12
2018-09-12T01:07:01.852Z,19.17
2018-09-12T01:08:01.726Z,19.10
2018-09-12T01:09:01.730Z,19.09
2018-09-12T01:10:01.553Z,19.09
2018-09-12T01:11:01.566Z,19.05
2018-09-12T01:12:01.420Z,19.02
2018-09-12T01:13:01.605Z,18.99
2018-09-12T01:16:09.044Z,18.83
2018-09-12T01:17:08.954Z,18.74
2018-09-12T01:18:08.879Z,18.65
2018-09-12T01:19:08.859Z,18.60
2018-09-12T01:20:08.680Z,18.68
2018-09-12T01:21:08.672Z,18.54
2018-09-12T01:22:08.625Z,18.56
2018-09-12T01:23:08.545Z,18.53
2018-09-12T01:24:08.363Z,18.65
2018-09-12T01:25:08.462Z,18.54
2018-09-12T01:26:08.201Z,18.53
2018-09-12T01:27:08.204Z,18.53
2018-09-12T01:28:08.058Z,18.54
2018-09-12T01:29:08.006Z,18.49
2018-09-12T01:30:07.884Z,18.42
2018-09-12T01:31:07.917Z,18.46
2018-09-12T01:32:07.724Z,18.46
2018-09-12T01:33:07.760Z,18.44
2018-09-12T01:34:07.581Z,18.50
2018-09-12T01:35:07.539Z,18.39
2018-09-12T01:36:07.406Z,18.44
2018-09-12T01:37:07.441Z,18.46
2018-09-12T01:38:22.162Z,18.36
2018-09-12T01:39:07.287Z,18.36
2018-09-12T01:40:07.082Z,18.41
2018-09-12T01:41:07.121Z,18.39
2018-09-12T01:42:06.926Z,18.44
2018-09-12T01:43:06.981Z,18.36
2018-09-12T01:44:06.796Z,18.39
2018-09-12T01:45:06.796Z,18.31
2018-09-12T01:46:06.609Z,18.41
2018-09-12T01:47:06.592Z,18.29
2018-09-12T01:48:06.450Z,18.34
2018-09-12T01:49:06.445Z,18.28
2018-09-12T01:50:06.292Z,18.31
2018-09-12T01:51:06.324Z,18.25
2018-09-12T01:52:06.153Z,18.28
2018-09-12T01:53:06.139Z,18.17
2018-09-12T01:54:05.997Z,18.11
2018-09-12T01:55:05.944Z,18.10
2018-09-12T01:56:05.816Z,18.01
2018-09-12T01:57:05.848Z,18.05
2018-09-12T01:58:05.719Z,17.87
2018-09-12T01:59:05.700Z,17.98
2018-09-12T02:00:05.499Z,17.92
2018-09-12T02:01:05.496Z,17.92
2018-09-12T02:02:05.349Z,17.80
2018-09-12T02:03:05.383Z,17.86
2018-09-12T02:04:05.186Z,17.92
2018-09-12T02:05:05.224Z,17.96
2018-09-12T02:06:05.016Z,17.95
2018-09-12T02:07:05.001Z,17.98
2018-09-12T02:08:04.855Z,17.98
2018-09-12T02:09:04.898Z,17.89
2018-09-12T02:10:04.724Z,17.94
2018-09-12T02:12:47.008Z,17.89
2018-09-12T02:13:47.008Z,17.91
2018-09-12T02:14:46.849Z,17.81
2018-09-12T02:15:47.873Z,17.73
2018-09-12T02:16:46.699Z,17.83
2018-09-12T02:17:46.724Z,17.86
2018-09-12T02:18:46.536Z,17.76
2018-09-12T02:19:46.565Z,17.71
2018-09-12T02:20:46.404Z,17.81
2018-09-12T02:21:46.347Z,17.71
2018-09-12T02:22:46.346Z,17.74
2018-09-12T02:23:46.259Z,17.70
2018-09-12T02:24:46.048Z,17.73
2018-09-12T02:25:46.251Z,17.70
2018-09-12T02:26:45.894Z,17.70
2018-09-12T02:27:45.873Z,17.80
2018-09-12T02:28:45.741Z,17.81
2018-09-12T02:31:28.047Z,17.73
2018-09-12T02:32:28.086Z,17.63
2018-09-12T02:33:27.857Z,17.66
2018-09-12T02:36:10.036Z,17.53
2018-09-12T02:37:10.005Z,17.53
2018-09-12T03:01:09.589Z,17.14
2018-09-12T03:02:09.448Z,17.10
2018-09-12T03:03:09.453Z,17.18
2018-09-12T03:04:09.288Z,17.14
2018-09-12T03:05:09.261Z,17.05
2018-09-12T03:06:09.134Z,17.14
2018-09-12T03:07:09.205Z,17.03
2018-09-12T03:08:08.961Z,17.09
2018-09-12T03:09:08.981Z,17.03
2018-09-12T03:10:08.805Z,17.14
2018-09-12T03:11:08.796Z,17.02
2018-09-12T03:12:08.680Z,17.18
2018-09-12T03:13:08.713Z,17.10
2018-09-12T03:14:08.490Z,17.10
2018-09-12T03:15:08.506Z,17.03
2018-09-12T03:16:08.321Z,17.02
2018-09-12T03:17:08.362Z,16.88
2018-09-12T03:18:08.179Z,16.92
2018-09-12T03:19:08.230Z,16.91
2018-09-12T03:20:08.005Z,16.91
2018-09-12T03:21:08.210Z,16.91
2018-09-12T03:22:08.028Z,16.84
2018-09-12T03:23:07.852Z,17.03
2018-09-12T03:24:07.690Z,16.99
2018-09-12T03:25:07.676Z,16.91
2018-09-12T03:26:07.524Z,16.92
2018-09-12T03:27:07.568Z,16.81
2018-09-12T03:28:07.411Z,16.82
2018-09-12T03:29:07.376Z,16.84
2018-09-12T03:30:07.205Z,16.73
2018-09-12T03:31:07.193Z,16.73
2018-09-12T03:32:07.042Z,16.80
2018-09-12T03:33:07.023Z,16.80
2018-09-12T03:34:06.880Z,16.69
2018-09-12T03:35:06.899Z,16.70
2018-09-12T03:36:06.723Z,16.77
2018-09-12T03:37:06.713Z,16.72
2018-09-12T03:38:06.743Z,16.62
2018-09-12T03:39:06.529Z,16.67
2018-09-12T03:40:06.415Z,16.67
2018-09-12T03:42:48.564Z,16.69
2018-09-12T03:43:48.541Z,16.75
2018-09-12T03:44:48.390Z,16.67
2018-09-12T03:45:48.341Z,16.73
2018-09-12T03:46:48.214Z,16.72
2018-09-12T03:47:48.245Z,16.78
2018-09-12T03:48:48.081Z,16.72
2018-09-12T03:49:48.055Z,16.72
2018-09-12T03:50:47.890Z,16.73
2018-09-12T03:53:30.062Z,16.66
2018-09-12T03:56:16.158Z,16.66
2018-09-12T03:57:16.162Z,16.67
2018-09-12T03:58:15.889Z,16.73
2018-09-12T03:59:15.920Z,16.69
2018-09-12T04:00:15.743Z,16.62
2018-09-12T04:01:15.678Z,16.73
2018-09-12T04:02:15.563Z,16.60
2018-09-12T04:03:15.583Z,16.63
2018-09-12T04:04:15.417Z,16.67
2018-09-12T04:05:15.397Z,16.69
2018-09-12T04:06:15.244Z,16.54
2018-09-12T04:07:15.212Z,16.54
2018-09-12T04:08:15.087Z,16.59
2018-09-12T04:09:15.047Z,16.63
2018-09-12T04:10:14.947Z,16.62
2018-09-12T04:11:14.923Z,16.54
2018-09-12T04:12:14.756Z,16.51
2018-09-12T04:13:14.732Z,16.45
2018-09-12T04:14:14.663Z,16.51
2018-09-12T04:15:14.741Z,16.47
2018-09-12T04:16:14.438Z,16.45
2018-09-12T04:17:14.461Z,16.52
2018-09-12T04:20:22.131Z,16.48
2018-09-12T04:21:22.060Z,16.45
2018-09-12T04:22:21.879Z,16.47
2018-09-12T04:23:21.871Z,16.42
2018-09-12T04:24:21.765Z,16.51
2018-09-12T04:25:21.706Z,16.40
2018-09-12T04:26:21.674Z,16.47
2018-09-12T04:27:21.591Z,16.37
2018-09-12T04:28:21.409Z,16.36
2018-09-12T04:29:21.441Z,16.41
2018-09-12T04:30:21.260Z,16.42
2018-09-12T04:31:21.207Z,16.32
2018-09-12T04:32:21.120Z,16.33
2018-09-12T04:33:21.131Z,16.40
2018-09-12T04:34:20.919Z,16.41
2018-09-12T04:35:20.975Z,16.37
2018-09-12T04:36:20.775Z,16.34
2018-09-12T04:37:20.732Z,16.26
2018-09-12T04:38:20.600Z,16.25
2018-09-12T04:39:20.719Z,16.29
2018-09-12T04:40:20.437Z,16.14
2018-09-12T04:41:20.496Z,16.25
2018-09-12T04:42:20.281Z,16.25
2018-09-12T04:45:02.592Z,16.29
2018-09-12T04:46:02.604Z,16.17
2018-09-12T04:47:02.417Z,16.16
2018-09-12T04:48:02.377Z,16.08
2018-09-12T04:49:02.261Z,16.06
2018-09-12T04:51:44.075Z,16.16
2018-09-12T04:52:44.076Z,16.14
2018-09-12T04:53:43.909Z,16.08
2018-09-12T04:54:43.876Z,16.07
2018-09-12T04:55:43.748Z,16.11
2018-09-12T04:58:25.576Z,16.13
2018-09-12T04:59:25.587Z,16.11
2018-09-12T05:00:25.388Z,16.10
2018-09-12T05:01:25.442Z,16.11
2018-09-12T05:02:25.228Z,16.10
2018-09-12T05:03:25.209Z,16.10
2018-09-12T05:04:25.067Z,16.13
2018-09-12T05:05:25.119Z,16.14
2018-09-12T05:06:24.931Z,16.11
2018-09-12T05:07:24.920Z,16.04
2018-09-12T05:08:24.750Z,16.10
2018-09-12T05:11:07.059Z,16.11
2018-09-12T05:12:07.065Z,16.08
2018-09-12T05:13:06.902Z,16.18
2018-09-12T05:14:06.854Z,16.13
2018-09-12T05:15:06.735Z,16.04
2018-09-12T05:16:06.811Z,16.17
2018-09-12T05:17:06.595Z,16.14
2018-09-12T05:18:06.572Z,16.22
2018-09-12T05:19:06.414Z,16.14
2018-09-12T05:20:06.387Z,16.10
2018-09-12T05:21:06.250Z,16.16
2018-09-12T05:22:07.263Z,16.17
2018-09-12T05:23:06.091Z,16.18
2018-09-12T05:24:06.088Z,16.14
2018-09-12T05:25:05.937Z,16.17
2018-09-12T05:26:05.912Z,16.23
2018-09-12T05:27:05.802Z,16.23
2018-09-12T05:28:05.809Z,16.25
2018-09-12T05:29:05.640Z,16.22
2018-09-12T05:30:05.620Z,16.30
2018-09-12T05:31:05.465Z,16.27
2018-09-12T05:32:05.464Z,16.37
2018-09-12T05:33:05.306Z,16.37
2018-09-12T05:34:06.302Z,16.48
2018-09-12T05:35:05.134Z,16.41
2018-09-12T05:36:05.161Z,16.44
2018-09-12T05:37:04.972Z,16.45
2018-09-12T05:38:04.955Z,16.41
2018-09-12T05:39:04.824Z,16.36
2018-09-12T05:40:04.760Z,16.44
2018-09-12T05:41:04.650Z,16.37
2018-09-12T05:42:04.683Z,16.55
2018-09-12T05:43:04.506Z,16.50
2018-09-12T05:44:04.484Z,16.45
2018-09-12T05:45:04.325Z,16.45
2018-09-12T05:46:04.302Z,16.47
2018-09-12T05:47:04.180Z,16.44
2018-09-12T05:48:05.175Z,16.60
2018-09-12T05:49:04.010Z,16.57
2018-09-12T05:51:46.062Z,16.72
2018-09-12T05:52:47.073Z,16.72
2018-09-12T05:53:45.937Z,16.73
2018-09-12T05:54:45.924Z,16.73
2018-09-12T05:55:45.748Z,16.69
2018-09-12T05:56:45.727Z,16.69
2018-09-12T05:57:45.591Z,16.69
2018-09-12T05:58:46.898Z,16.72
2018-09-12T05:59:45.436Z,16.73
2018-09-12T06:00:45.467Z,16.65
2018-09-12T06:01:45.268Z,16.60
2018-09-12T06:02:45.259Z,16.63
2018-09-12T06:03:45.159Z,16.70
2018-09-12T06:04:45.066Z,16.73
2018-09-12T06:05:44.975Z,16.72
2018-09-12T06:06:45.156Z,16.78
2018-09-12T06:07:44.810Z,16.82
2018-09-12T06:08:44.754Z,16.87
2018-09-12T06:09:44.639Z,16.82
2018-09-12T06:12:26.654Z,16.88
2018-09-12T06:13:26.594Z,16.92
2018-09-12T06:14:26.434Z,17.00
2018-09-12T06:15:26.412Z,17.03
2018-09-12T06:16:26.266Z,17.00
2018-09-12T06:17:26.219Z,17.05
2018-09-12T06:18:26.100Z,17.05
2018-09-12T06:19:26.160Z,17.15
2018-09-12T06:20:25.962Z,17.09
2018-09-12T06:21:25.963Z,17.15
2018-09-12T06:22:25.800Z,17.12
2018-09-12T06:23:25.742Z,17.14
2018-09-12T06:24:25.628Z,17.18
2018-09-12T06:25:25.642Z,17.22
2018-09-12T06:26:25.453Z,17.18
2018-09-12T06:27:25.452Z,17.33
2018-09-12T06:28:25.306Z,17.40
2018-09-12T06:29:25.297Z,17.58
2018-09-12T06:30:25.137Z,17.62
2018-09-12T06:31:25.194Z,17.71
2018-09-12T06:32:24.978Z,18.09
2018-09-12T06:33:24.982Z,18.49
2018-09-12T06:34:24.834Z,18.46
2018-09-12T06:35:25.843Z,18.53
2018-09-12T06:36:24.683Z,18.51
2018-09-12T06:37:24.715Z,18.54
2018-09-12T06:38:24.647Z,18.54
2018-09-12T06:39:24.540Z,18.59
2018-09-12T06:40:24.372Z,18.62
2018-09-12T06:41:24.367Z,18.84
2018-09-12T06:42:24.170Z,19.01
2018-09-12T06:43:24.123Z,19.05
2018-09-12T06:44:24.015Z,19.12
2018-09-12T06:45:24.068Z,19.27
2018-09-12T06:46:23.855Z,19.25
2018-09-12T06:47:23.850Z,19.25
2018-09-12T06:48:23.708Z,19.60
2018-09-12T06:49:23.656Z,19.61
2018-09-12T06:50:23.563Z,19.90
2018-09-12T06:51:23.593Z,20.04
2018-09-12T06:52:23.393Z,20.58
2018-09-12T06:55:05.608Z,20.73
2018-09-12T06:56:05.614Z,20.51
2018-09-12T06:57:05.424Z,20.71
2018-09-12T06:58:05.389Z,20.30
2018-09-12T06:59:05.282Z,19.95
2018-09-12T07:01:30.729Z,19.49
2018-09-12T07:02:30.550Z,19.67
2018-09-12T07:03:30.530Z,19.89
2018-09-12T07:04:30.362Z,20.15
2018-09-12T07:23:27.042Z,20.87
2018-09-12T07:26:09.099Z,21.27
2018-09-12T07:27:09.114Z,21.19
2018-09-12T07:28:08.963Z,21.03
2018-09-12T07:29:08.974Z,21.05
2018-09-12T07:30:08.817Z,21.27
2018-09-12T07:31:08.790Z,21.40
2018-09-12T07:32:08.632Z,21.93
2018-09-12T07:33:08.751Z,22.33
2018-09-12T07:34:08.486Z,22.51
2018-09-12T07:35:08.495Z,22.84
2018-09-12T07:36:08.329Z,23.06
2018-09-12T07:37:08.312Z,23.64
2018-09-12T07:38:08.157Z,23.45
2018-09-12T07:39:09.166Z,23.77
2018-09-12T07:40:08.015Z,24.08
2018-09-12T07:41:08.044Z,24.52
2018-09-12T07:42:07.847Z,24.68
2018-09-12T07:43:07.831Z,24.79
2018-09-12T07:44:07.712Z,25.14
2018-09-12T07:45:07.759Z,25.71
2018-09-12T07:46:07.542Z,25.41
2018-09-12T07:47:07.558Z,25.89
2018-09-12T07:48:07.428Z,25.93
2018-09-12T07:49:07.459Z,26.44
2018-09-12T07:50:07.248Z,26.41
2018-09-12T07:52:49.106Z,26.96
2018-09-12T07:53:49.108Z,27.42
2018-09-12T07:54:48.972Z,26.88
2018-09-12T07:55:48.990Z,27.62
2018-09-12T07:56:48.799Z,27.65
2018-09-12T07:57:48.785Z,27.40
2018-09-12T07:58:48.685Z,27.46
2018-09-12T08:01:37.663Z,27.53
2018-09-12T08:02:37.537Z,27.69
2018-09-12T08:03:37.582Z,27.96
2018-09-12T08:04:37.430Z,28.35
2018-09-12T08:05:37.383Z,28.61
2018-09-12T08:06:37.251Z,28.79
2018-09-12T08:09:19.105Z,27.93
2018-09-12T08:10:41.326Z,27.46
2018-09-12T08:11:18.974Z,26.73
2018-09-12T08:14:01.110Z,26.06
2018-09-12T08:16:43.150Z,26.97
2018-09-12T08:19:25.124Z,26.69
2018-09-12T08:20:25.230Z,26.23
2018-09-12T08:21:24.981Z,25.42
2018-09-12T08:48:46.977Z,29.02
2018-09-12T08:49:46.848Z,29.39
2018-09-12T08:52:29.147Z,29.51
2018-09-12T08:53:29.095Z,29.70
2018-09-12T08:54:28.991Z,29.51
2018-09-12T08:55:29.009Z,29.89
2018-09-12T08:56:28.859Z,30.23
2018-09-12T08:57:28.954Z,30.36
2018-09-12T08:58:28.713Z,29.85
2018-09-12T08:59:28.719Z,30.51
2018-09-12T09:00:28.645Z,30.51
2018-09-12T09:01:28.694Z,29.97
2018-09-12T09:02:28.474Z,30.28
2018-09-12T09:03:28.538Z,30.44
2018-09-12T09:04:28.302Z,30.38
2018-09-12T09:05:28.349Z,29.71
2018-09-12T09:06:28.303Z,30.13
2018-09-12T09:07:28.200Z,30.08
2018-09-12T09:08:28.039Z,29.97
2018-09-12T09:09:28.076Z,30.04
2018-09-12T09:10:27.974Z,30.70
2018-09-12T09:11:27.882Z,30.98
2018-09-12T09:12:27.791Z,30.83
2018-09-12T09:13:27.840Z,30.36
2018-09-12T09:14:27.631Z,29.78
2018-09-12T09:15:27.602Z,29.86
2018-09-12T09:16:27.502Z,29.85
2018-09-12T09:17:27.651Z,29.71
2018-09-12T09:18:27.358Z,29.71
2018-09-12T09:19:27.433Z,30.60
2018-09-12T09:20:27.232Z,30.38
2018-09-12T09:21:27.241Z,30.11
2018-09-12T09:22:27.104Z,29.71
2018-09-12T09:23:27.155Z,29.67
2018-09-12T09:24:26.957Z,29.88
2018-09-12T09:25:27.049Z,30.26
2018-09-12T09:26:26.821Z,30.18
2018-09-12T09:27:26.857Z,30.22
2018-09-12T09:28:26.729Z,29.84
2018-09-12T09:29:26.751Z,29.73
2018-09-12T09:30:26.563Z,30.25
2018-09-12T09:31:26.576Z,30.34
2018-09-12T09:32:26.429Z,30.63
2018-09-12T09:33:27.463Z,30.67
2018-09-12T09:34:26.287Z,30.48
2018-09-12T09:35:26.427Z,30.46
2018-09-12T09:36:26.155Z,30.82
2018-09-12T09:37:26.208Z,30.83
2018-09-12T09:38:26.050Z,30.42
2018-09-12T09:39:26.023Z,30.46
2018-09-12T09:40:25.904Z,30.81
2018-09-12T09:41:25.929Z,31.04
2018-09-12T09:42:25.751Z,31.03
2018-09-12T09:43:26.795Z,31.10
2018-09-12T09:44:25.638Z,31.23
2018-09-12T09:47:07.694Z,30.68
2018-09-12T09:49:49.676Z,30.97
2018-09-12T09:50:49.646Z,31.59
2018-09-12T09:51:49.588Z,31.10
2018-09-12T09:52:49.549Z,30.36
2018-09-12T09:53:49.410Z,30.32
2018-09-12T09:54:49.563Z,30.63
2018-09-12T09:55:49.281Z,30.46
2018-09-12T09:58:31.357Z,30.21
2018-09-12T10:18:11.778Z,30.90
2018-09-12T10:19:11.564Z,31.04
2018-09-12T10:20:11.589Z,31.13
2018-09-12T10:21:11.434Z,31.72
2018-09-12T10:22:11.457Z,31.49
2018-09-12T10:23:11.300Z,31.67
2018-09-12T10:24:11.374Z,31.19
2018-09-12T10:25:11.322Z,30.45
2018-09-12T10:26:11.205Z,30.97
2018-09-12T10:27:11.041Z,31.25
2018-09-12T10:28:11.113Z,30.66
2018-09-12T10:29:10.925Z,30.63
2018-09-12T10:30:10.898Z,30.85
2018-09-12T10:31:10.797Z,30.46
2018-09-12T10:32:10.810Z,30.25
2018-09-12T10:33:10.646Z,28.91
2018-09-12T10:34:10.612Z,28.08
2018-09-12T10:35:10.523Z,28.70
2018-09-12T10:36:11.577Z,29.42
2018-09-12T10:37:10.381Z,28.83
2018-09-12T10:38:10.432Z,28.46
2018-09-12T10:39:10.254Z,28.76
2018-09-12T10:41:52.193Z,29.55
2018-09-12T10:42:52.134Z,28.20
2018-09-12T10:43:52.051Z,27.33
2018-09-12T10:44:52.040Z,27.83
2018-09-12T10:45:51.900Z,27.52
2018-09-12T10:46:52.950Z,27.55
2018-09-12T10:47:51.781Z,28.73
2018-09-12T10:48:51.769Z,28.48
2018-09-12T10:49:51.650Z,28.08
2018-09-12T10:50:51.678Z,27.53
2018-09-12T10:51:51.535Z,27.02
2018-09-12T10:52:51.518Z,26.73
2018-09-12T10:53:51.535Z,26.57
2018-09-12T10:54:51.401Z,26.56
2018-09-12T10:55:51.248Z,26.53
2018-09-12T10:56:51.352Z,26.73
2018-09-12T10:57:51.094Z,27.88
2018-09-12T10:58:51.115Z,29.05
2018-09-12T10:59:50.963Z,29.60
2018-09-12T11:00:50.925Z,30.29
2018-09-12T11:01:50.853Z,30.93
2018-09-12T11:02:50.842Z,30.53
2018-09-12T11:03:50.669Z,29.81
2018-09-12T11:06:32.697Z,30.67
2018-09-12T11:07:32.633Z,30.40
2018-09-12T11:08:32.553Z,30.78
2018-09-12T11:09:32.548Z,30.91
2018-09-12T11:10:32.405Z,30.72
2018-09-12T11:11:32.409Z,31.23
2018-09-12T11:12:32.278Z,31.25
2018-09-12T11:13:32.286Z,30.19
2018-09-12T11:14:32.199Z,29.89
2018-09-12T11:15:32.183Z,30.53
2018-09-12T11:16:32.050Z,30.01
2018-09-12T11:17:32.041Z,29.41
2018-09-12T11:18:31.872Z,29.55
2018-09-12T11:19:31.907Z,29.92
2018-09-12T11:20:31.740Z,29.76
2018-09-12T11:24:21.223Z,28.85
2018-09-12T11:25:21.197Z,29.00
2018-09-12T11:26:21.068Z,28.52
2018-09-12T11:27:21.111Z,27.61
2018-09-12T11:28:20.944Z,27.42
2018-09-12T11:31:03.187Z,28.28
2018-09-12T11:32:03.227Z,28.54
2018-09-12T11:33:03.190Z,28.76
2018-09-12T11:35:45.203Z,28.33
2018-09-12T11:36:45.225Z,28.80
2018-09-12T11:37:45.061Z,28.89
2018-09-12T11:38:46.118Z,29.10
2018-09-12T11:39:44.919Z,30.08
2018-09-12T11:40:44.949Z,30.56
2018-09-12T11:41:44.785Z,31.15
2018-09-12T11:42:44.749Z,31.57
2018-09-12T11:43:44.657Z,31.42
2018-09-12T11:44:44.659Z,31.16
2018-09-12T11:45:44.568Z,31.28
2018-09-12T11:48:26.838Z,28.64
2018-09-12T11:49:26.712Z,29.42
2018-09-12T11:50:26.573Z,29.02
2018-09-12T11:51:26.583Z,28.54
2018-09-12T11:52:26.434Z,28.69
2018-09-12T11:53:26.430Z,28.33
2018-09-12T11:54:26.384Z,27.68
2018-09-12T11:55:26.360Z,27.34
2018-09-12T11:56:26.164Z,26.97
2018-09-12T11:57:26.219Z,26.53
2018-09-12T11:58:26.063Z,26.42
2018-09-12T11:59:26.075Z,27.28
2018-09-12T12:00:25.880Z,28.32
2018-09-12T12:01:25.938Z,29.17
2018-09-12T12:02:25.761Z,28.52
2018-09-12T12:03:25.746Z,28.11
2018-09-12T12:04:25.651Z,28.36
2018-09-12T12:07:07.705Z,29.05
2018-09-12T12:08:07.761Z,29.17
2018-09-12T12:09:07.597Z,29.02
2018-09-12T12:10:07.687Z,27.90
2018-09-12T12:11:07.425Z,27.06
2018-09-12T12:12:07.472Z,27.06
2018-09-12T12:13:07.286Z,26.90
2018-09-12T12:14:07.297Z,26.64
2018-09-12T12:15:07.153Z,26.71
2018-09-12T12:16:07.100Z,26.97
2018-09-12T12:17:06.994Z,27.15
2018-09-12T12:18:07.009Z,27.45
2018-09-12T12:19:06.876Z,27.71
2018-09-12T12:20:06.911Z,27.31
2018-09-12T12:21:06.702Z,27.38
2018-09-12T12:22:06.754Z,27.43
2018-09-12T12:23:06.587Z,27.25
2018-09-12T12:24:06.573Z,27.18
2018-09-12T12:25:06.446Z,27.39
2018-09-12T12:26:06.452Z,27.61
2018-09-12T12:27:06.264Z,27.31
2018-09-12T12:28:06.253Z,26.68
2018-09-12T12:29:06.137Z,26.23
2018-09-12T12:30:06.194Z,26.20
2018-09-12T12:31:05.980Z,26.08
2018-09-12T12:32:05.979Z,26.03
2018-09-12T12:33:05.838Z,26.39
2018-09-12T12:34:05.878Z,26.49
2018-09-12T12:35:05.707Z,26.49
2018-09-12T12:36:05.697Z,26.75
2018-09-12T12:37:05.544Z,26.91
2018-09-12T12:38:05.515Z,27.30
2018-09-12T12:39:05.411Z,27.43
2018-09-12T12:40:05.436Z,27.33
2018-09-12T12:41:05.267Z,27.31
2018-09-12T12:42:05.234Z,27.18
2018-09-12T12:43:05.110Z,26.46
2018-09-12T12:44:05.133Z,26.46
2018-09-12T12:45:05.007Z,26.23
2018-09-12T12:46:04.956Z,25.97
2018-09-12T12:47:04.800Z,25.63
2018-09-12T12:49:46.736Z,25.53
2018-09-12T12:50:46.784Z,25.46
2018-09-12T12:51:46.602Z,25.05
2018-09-12T12:54:28.731Z,24.92
2018-09-12T12:55:28.747Z,24.90
2018-09-12T12:56:28.598Z,24.83
2018-09-12T12:57:28.565Z,24.83
2018-09-12T12:58:28.439Z,24.79
2018-09-12T12:59:28.555Z,24.89
2018-09-12T13:00:28.278Z,24.83
2018-09-12T13:01:28.329Z,24.80
2018-09-12T13:02:28.136Z,24.71
2018-09-12T13:03:28.092Z,24.66
2018-09-12T13:04:27.988Z,24.60
2018-09-12T13:05:28.014Z,24.60
2018-09-12T13:06:27.844Z,24.56
2018-09-12T13:07:27.801Z,24.87
2018-09-12T13:08:27.690Z,24.83
2018-09-12T13:09:27.722Z,24.92
2018-09-12T13:10:27.533Z,24.99
2018-09-12T13:11:28.591Z,24.99
2018-09-12T13:12:27.384Z,24.92
2018-09-12T13:13:27.335Z,25.04
2018-09-12T13:14:27.381Z,25.20
2018-09-12T13:17:09.252Z,24.87
2018-09-12T13:18:09.240Z,24.86
2018-09-12T13:19:09.085Z,24.56
2018-09-12T13:20:09.063Z,24.24
2018-09-12T13:21:08.944Z,24.00
2018-09-12T13:22:09.005Z,23.94
2018-09-12T13:23:08.791Z,24.04
2018-09-12T13:24:08.900Z,23.96
2018-09-12T13:25:08.638Z,23.96
2018-09-12T13:26:08.695Z,23.78
2018-09-12T13:27:08.561Z,23.86
2018-09-12T13:28:08.498Z,23.90
2018-09-12T13:29:08.338Z,23.87
2018-09-12T13:30:08.316Z,23.92
2018-09-12T13:31:08.202Z,23.79
2018-09-12T13:32:08.229Z,23.78
2018-09-12T13:33:08.050Z,23.68
2018-09-12T13:34:08.079Z,23.56
2018-09-12T13:35:07.870Z,23.38
2018-09-12T13:36:07.827Z,23.39
2018-09-12T13:37:07.725Z,23.23
2018-09-12T13:38:07.786Z,23.15
2018-09-12T13:39:07.566Z,23.07
2018-09-12T13:40:07.547Z,23.00
2018-09-12T13:41:07.441Z,23.07
2018-09-12T13:42:07.457Z,23.01
2018-09-12T13:43:07.304Z,23.07
2018-09-12T13:44:07.266Z,22.99
2018-09-12T13:45:07.122Z,22.93
2018-09-12T13:47:49.273Z,22.75
2018-09-12T13:48:49.319Z,22.66
2018-09-12T13:49:49.102Z,22.60
2018-09-12T13:50:49.107Z,22.67
2018-09-12T13:51:48.939Z,22.66
2018-09-12T13:52:48.946Z,22.63
2018-09-12T13:53:48.854Z,22.52
2018-09-12T13:54:48.802Z,22.38
2018-09-12T13:55:48.633Z,22.35
2018-09-12T13:56:48.714Z,22.19
2018-09-12T13:57:48.501Z,22.24
2018-09-12T13:58:48.519Z,22.27
2018-09-12T13:59:48.348Z,22.27
2018-09-12T14:00:48.330Z,22.19
2018-09-12T14:01:48.161Z,21.99
2018-09-12T14:02:48.199Z,21.77
2018-09-12T14:03:48.024Z,21.77
2018-09-12T14:04:48.076Z,21.75
2018-09-12T14:05:47.862Z,21.81
2018-09-12T14:06:47.862Z,21.71
2018-09-12T14:07:47.727Z,21.64
2018-09-12T14:08:47.712Z,21.59
2018-09-12T14:09:47.563Z,21.61
2018-09-12T14:10:47.581Z,21.37
2018-09-12T14:11:47.414Z,21.42
2018-09-12T14:12:47.405Z,21.30
2018-09-12T14:13:47.266Z,21.49
2018-09-12T14:14:47.253Z,21.51
2018-09-12T14:15:47.084Z,21.75
2018-09-12T14:16:47.004Z,21.74
2018-09-12T14:17:46.931Z,21.70
2018-09-12T14:18:46.946Z,21.59
2018-09-12T14:19:46.787Z,21.51
2018-09-12T14:20:46.725Z,21.63
2018-09-12T14:21:46.623Z,21.59
2018-09-12T14:24:28.770Z,21.63
2018-09-12T14:25:29.702Z,21.63
2018-09-12T14:26:28.609Z,21.74
2018-09-12T14:29:10.812Z,21.70
2018-09-12T14:30:10.782Z,21.66
2018-09-12T14:31:10.624Z,21.53
2018-09-12T14:32:10.567Z,21.52
2018-09-12T14:33:10.478Z,21.55
2018-09-12T14:34:10.473Z,21.56
2018-09-12T14:35:10.324Z,21.52
2018-09-12T14:36:10.300Z,21.49
2018-09-12T14:37:10.159Z,21.48
2018-09-12T14:38:10.189Z,21.36
2018-09-12T14:39:10.062Z,21.27
2018-09-12T14:40:10.046Z,21.21
2018-09-12T14:41:09.854Z,21.18
2018-09-12T14:42:09.884Z,21.13
2018-09-12T14:43:09.686Z,21.21
2018-09-12T14:44:09.715Z,20.93
2018-09-12T14:45:09.761Z,21.03
2018-09-12T14:46:09.540Z,20.97
2018-09-12T14:47:09.369Z,20.79
2018-09-12T14:48:09.351Z,20.76
2018-09-12T14:49:09.207Z,20.75
2018-09-12T14:50:09.246Z,21.00
2018-09-12T14:51:09.061Z,20.93
2018-09-12T14:52:09.061Z,21.01
2018-09-12T14:53:08.901Z,20.87
2018-09-12T14:55:50.800Z,20.88
2018-09-12T14:56:50.755Z,20.93
2018-09-12T14:57:50.626Z,20.87
2018-09-12T14:58:50.570Z,20.90
2018-09-12T14:59:50.456Z,20.79
2018-09-12T15:00:50.529Z,20.64
2018-09-12T15:01:50.308Z,20.61
2018-09-12T15:02:50.284Z,20.68
2018-09-12T15:03:50.166Z,20.72
2018-09-12T15:04:50.146Z,20.53
2018-09-12T15:05:50.046Z,20.57
2018-09-12T15:06:50.054Z,20.61
2018-09-12T15:07:49.825Z,20.64
2018-09-12T15:08:49.808Z,20.68
2018-09-12T15:09:49.678Z,20.61
2018-09-12T15:10:49.632Z,20.58
2018-09-12T15:11:49.575Z,20.25
2018-09-12T15:12:49.535Z,20.16
2018-09-12T15:13:49.358Z,20.13
2018-09-12T15:14:49.348Z,19.92
2018-09-12T15:15:49.210Z,19.90
2018-09-12T15:16:49.212Z,19.92
2018-09-12T15:17:49.049Z,20.00
2018-09-12T15:18:49.067Z,20.02
2018-09-12T15:19:48.890Z,19.80
2018-09-12T15:20:48.903Z,19.79
2018-09-12T15:21:48.807Z,19.61
2018-09-12T15:22:48.804Z,19.62
2018-09-12T15:23:48.577Z,19.42
2018-09-12T15:26:30.830Z,19.53
2018-09-12T15:29:12.786Z,19.39
2018-09-12T15:30:12.799Z,19.32
2018-09-12T15:31:12.709Z,19.21
2018-09-12T15:32:12.683Z,19.21
2018-09-12T15:33:12.489Z,19.23
2018-09-12T15:34:12.565Z,19.16
2018-09-12T15:35:12.315Z,19.13
2018-09-12T15:37:54.321Z,19.12
2018-09-12T15:38:54.317Z,19.16
2018-09-12T15:39:54.127Z,19.09
2018-09-12T15:40:54.119Z,19.12